sensor_id;sensor_type;location;lat;lon;timestamp;pressure;altitude;pressure_sealevel;temperature;humidity
76011;BME280;64701;43.536;1.478;2023-12-20T00:02:20;100596.53;;;7.61;100.00
76011;BME280;64701;43.536;1.478;2023-12-20T00:04:45;100587.63;;;7.62;100.00
76011;BME280;64701;43.536;1.478;2023-12-20T00:07:11;100577.47;;;7.67;100.00
76011;BME280;64701;43.536;1.478;2023-12-20T00:09:36;100576.09;;;7.63;100.00
76011;BME280;64701;43.536;1.478;2023-12-20T00:12:01;100576.66;;;7.67;100.00
76011;BME280;64701;43.536;1.478;2023-12-20T00:14:26;100577.19;;;7.70;100.00
76011;BME280;64701;43.536;1.478;2023-12-20T00:16:52;100573.19;;;7.66;100.00
76011;BME280;64701;43.536;1.478;2023-12-20T00:19:17;100564.97;;;7.69;100.00
76011;BME280;64701;43.536;1.478;2023-12-20T00:21:42;100563.72;;;7.73;100.00
76011;BME280;64701;43.536;1.478;2023-12-20T00:24:07;100569.66;;;7.75;100.00
76011;BME280;64701;43.536;1.478;2023-12-20T00:26:33;100567.84;;;7.76;100.00
76011;BME280;64701;43.536;1.478;2023-12-20T00:28:58;100558.13;;;7.76;100.00
76011;BME280;64701;43.536;1.478;2023-12-20T00:31:23;100556.19;;;7.78;100.00
76011;BME280;64701;43.536;1.478;2023-12-20T00:33:48;100549.78;;;7.81;100.00
76011;BME280;64701;43.536;1.478;2023-12-20T00:36:14;100536.31;;;7.84;100.00
76011;BME280;64701;43.536;1.478;2023-12-20T00:38:39;100534.50;;;7.85;100.00
76011;BME280;64701;43.536;1.478;2023-12-20T00:41:04;100533.66;;;7.84;100.00
76011;BME280;64701;43.536;1.478;2023-12-20T00:43:29;100534.50;;;7.85;100.00
76011;BME280;64701;43.536;1.478;2023-12-20T00:45:55;100534.19;;;7.88;100.00
76011;BME280;64701;43.536;1.478;2023-12-20T00:48:20;100523.50;;;7.89;100.00
76011;BME280;64701;43.536;1.478;2023-12-20T00:50:46;100523.34;;;7.91;100.00
76011;BME280;64701;43.536;1.478;2023-12-20T00:53:11;100511.84;;;7.92;100.00
76011;BME280;64701;43.536;1.478;2023-12-20T00:55:36;100507.91;;;7.96;100.00
76011;BME280;64701;43.536;1.478;2023-12-20T00:58:01;100507.06;;;7.95;100.00
76011;BME280;64701;43.536;1.478;2023-12-20T01:00:27;100516.50;;;7.98;100.00
76011;BME280;64701;43.536;1.478;2023-12-20T01:02:52;100517.47;;;7.97;100.00
76011;BME280;64701;43.536;1.478;2023-12-20T01:05:17;100513.69;;;7.99;100.00
76011;BME280;64701;43.536;1.478;2023-12-20T01:07:43;100512.06;;;7.98;100.00
76011;BME280;64701;43.536;1.478;2023-12-20T01:10:08;100507.31;;;8.02;100.00
76011;BME280;64701;43.536;1.478;2023-12-20T01:12:33;100500.88;;;8.04;100.00
76011;BME280;64701;43.536;1.478;2023-12-20T01:14:59;100498.41;;;8.03;100.00
76011;BME280;64701;43.536;1.478;2023-12-20T01:17:24;100504.34;;;8.05;100.00
76011;BME280;64701;43.536;1.478;2023-12-20T01:19:49;100496.16;;;8.08;100.00
76011;BME280;64701;43.536;1.478;2023-12-20T01:22:14;100493.50;;;8.08;100.00
76011;BME280;64701;43.536;1.478;2023-12-20T01:24:40;100487.25;;;8.09;100.00
76011;BME280;64701;43.536;1.478;2023-12-20T01:27:05;100482.50;;;8.12;100.00
76011;BME280;64701;43.536;1.478;2023-12-20T01:29:30;100482.34;;;8.14;100.00
76011;BME280;64701;43.536;1.478;2023-12-20T01:31:55;100491.09;;;8.14;100.00
76011;BME280;64701;43.536;1.478;2023-12-20T01:34:21;100482.03;;;8.17;100.00
76011;BME280;64701;43.536;1.478;2023-12-20T01:36:46;100478.56;;;8.16;100.00
76011;BME280;64701;43.536;1.478;2023-12-20T01:39:11;100485.50;;;8.17;100.00
76011;BME280;64701;43.536;1.478;2023-12-20T01:41:36;100486.34;;;8.18;100.00
76011;BME280;64701;43.536;1.478;2023-12-20T01:44:01;100474.97;;;8.17;100.00
76011;BME280;64701;43.536;1.478;2023-12-20T01:46:27;100478.13;;;8.21;100.00
76011;BME280;64701;43.536;1.478;2023-12-20T01:48:52;100470.22;;;8.21;100.00
76011;BME280;64701;43.536;1.478;2023-12-20T01:51:17;100465.59;;;8.23;100.00
76011;BME280;64701;43.536;1.478;2023-12-20T01:53:43;100473.06;;;8.28;100.00
76011;BME280;64701;43.536;1.478;2023-12-20T01:56:09;100463.50;;;8.27;100.00
76011;BME280;64701;43.536;1.478;2023-12-20T01:58:35;100462.53;;;8.28;100.00
76011;BME280;64701;43.536;1.478;2023-12-20T02:01:03;100462.53;;;8.28;100.00
76011;BME280;64701;43.536;1.478;2023-12-20T02:03:28;100458.88;;;8.29;100.00
76011;BME280;64701;43.536;1.478;2023-12-20T02:05:53;100463.19;;;8.30;100.00
76011;BME280;64701;43.536;1.478;2023-12-20T02:08:19;100448.22;;;8.30;100.00
76011;BME280;64701;43.536;1.478;2023-12-20T02:10:44;100437.38;;;8.33;100.00
76011;BME280;64701;43.536;1.478;2023-12-20T02:13:10;100446.25;;;8.32;100.00
76011;BME280;64701;43.536;1.478;2023-12-20T02:15:35;100432.09;;;8.33;100.00
76011;BME280;64701;43.536;1.478;2023-12-20T02:18:02;100430.41;;;8.32;100.00
76011;BME280;64701;43.536;1.478;2023-12-20T02:20:27;100432.22;;;8.32;100.00
76011;BME280;64701;43.536;1.478;2023-12-20T02:22:53;100423.16;;;8.34;100.00
76011;BME280;64701;43.536;1.478;2023-12-20T02:25:18;100410.66;;;8.36;100.00
76011;BME280;64701;43.536;1.478;2023-12-20T02:27:43;100415.63;;;8.39;100.00
76011;BME280;64701;43.536;1.478;2023-12-20T02:30:09;100412.81;;;8.41;100.00
76011;BME280;64701;43.536;1.478;2023-12-20T02:32:35;100402.94;;;8.43;100.00
76011;BME280;64701;43.536;1.478;2023-12-20T02:35:00;100394.72;;;8.46;100.00
76011;BME280;64701;43.536;1.478;2023-12-20T02:37:25;100400.81;;;8.46;100.00
76011;BME280;64701;43.536;1.478;2023-12-20T02:39:51;100400.00;;;8.46;100.00
76011;BME280;64701;43.536;1.478;2023-12-20T02:42:16;100402.66;;;8.46;100.00
76011;BME280;64701;43.536;1.478;2023-12-20T02:44:41;100402.66;;;8.46;100.00
76011;BME280;64701;43.536;1.478;2023-12-20T02:47:06;100398.78;;;8.40;100.00
76011;BME280;64701;43.536;1.478;2023-12-20T02:49:32;100396.16;;;8.40;100.00
76011;BME280;64701;43.536;1.478;2023-12-20T02:51:57;100399.47;;;8.42;100.00
76011;BME280;64701;43.536;1.478;2023-12-20T02:54:22;100396.53;;;8.45;100.00
76011;BME280;64701;43.536;1.478;2023-12-20T02:56:47;100393.91;;;8.45;100.00
76011;BME280;64701;43.536;1.478;2023-12-20T02:59:13;100387.47;;;8.48;100.00
76011;BME280;64701;43.536;1.478;2023-12-20T03:01:45;100373.78;;;8.52;100.00
76011;BME280;64701;43.536;1.478;2023-12-20T03:04:10;100371.00;;;8.54;100.00
76011;BME280;64701;43.536;1.478;2023-12-20T03:06:36;100361.94;;;8.56;100.00
76011;BME280;64701;43.536;1.478;2023-12-20T03:09:01;100359.81;;;8.60;100.00
76011;BME280;64701;43.536;1.478;2023-12-20T03:11:27;100361.31;;;8.63;100.00
76011;BME280;64701;43.536;1.478;2023-12-20T03:13:52;100358.19;;;8.67;100.00
76011;BME280;64701;43.536;1.478;2023-12-20T03:16:17;100355.41;;;8.69;100.00
76011;BME280;64701;43.536;1.478;2023-12-20T03:18:43;100349.16;;;8.70;100.00
76011;BME280;64701;43.536;1.478;2023-12-20T03:21:08;100343.88;;;8.70;100.00
76011;BME280;64701;43.536;1.478;2023-12-20T03:23:34;100339.56;;;8.69;100.00
76011;BME280;64701;43.536;1.478;2023-12-20T03:25:59;100348.47;;;8.68;100.00
76011;BME280;64701;43.536;1.478;2023-12-20T03:28:25;100350.44;;;8.66;100.00
76011;BME280;64701;43.536;1.478;2023-12-20T03:30:51;100345.78;;;8.59;100.00
76011;BME280;64701;43.536;1.478;2023-12-20T03:33:16;100345.13;;;8.57;100.00
76011;BME280;64701;43.536;1.478;2023-12-20T03:35:41;100340.97;;;8.55;100.00
76011;BME280;64701;43.536;1.478;2023-12-20T03:38:07;100337.66;;;8.53;100.00
76011;BME280;64701;43.536;1.478;2023-12-20T03:40:32;100337.84;;;8.51;100.00
76011;BME280;64701;43.536;1.478;2023-12-20T03:42:57;100344.75;;;8.44;100.00
76011;BME280;64701;43.536;1.478;2023-12-20T03:45:23;100343.38;;;8.40;100.00
76011;BME280;64701;43.536;1.478;2023-12-20T03:47:48;100341.22;;;8.36;100.00
76011;BME280;64701;43.536;1.478;2023-12-20T03:50:13;100343.34;;;8.32;100.00
76011;BME280;64701;43.536;1.478;2023-12-20T03:52:39;100338.34;;;8.29;100.00
76011;BME280;64701;43.536;1.478;2023-12-20T03:55:04;100342.00;;;8.28;100.00
76011;BME280;64701;43.536;1.478;2023-12-20T03:57:29;100341.31;;;8.26;100.00
76011;BME280;64701;43.536;1.478;2023-12-20T03:59:55;100337.69;;;8.27;100.00
76011;BME280;64701;43.536;1.478;2023-12-20T04:02:20;100337.50;;;8.29;100.00
76011;BME280;64701;43.536;1.478;2023-12-20T04:04:45;100327.78;;;8.29;100.00
76011;BME280;64701;43.536;1.478;2023-12-20T04:07:11;100318.53;;;8.25;100.00
76011;BME280;64701;43.536;1.478;2023-12-20T04:09:36;100313.59;;;8.22;100.00
76011;BME280;64701;43.536;1.478;2023-12-20T04:12:01;100328.75;;;8.20;100.00
76011;BME280;64701;43.536;1.478;2023-12-20T04:14:26;100317.88;;;8.23;100.00
76011;BME280;64701;43.536;1.478;2023-12-20T04:16:52;100320.00;;;8.19;100.00
76011;BME280;64701;43.536;1.478;2023-12-20T04:19:17;100313.59;;;8.22;100.00
76011;BME280;64701;43.536;1.478;2023-12-20T04:21:42;100307.31;;;8.23;100.00
76011;BME280;64701;43.536;1.478;2023-12-20T04:24:08;100305.34;;;8.25;100.00
76011;BME280;64701;43.536;1.478;2023-12-20T04:26:33;100308.81;;;8.26;100.00
76011;BME280;64701;43.536;1.478;2023-12-20T04:28:58;100293.00;;;8.26;100.00
76011;BME280;64701;43.536;1.478;2023-12-20T04:31:23;100294.94;;;8.24;100.00
76011;BME280;64701;43.536;1.478;2023-12-20T04:33:49;100302.03;;;8.23;100.00
76011;BME280;64701;43.536;1.478;2023-12-20T04:36:14;100286.53;;;8.20;100.00
76011;BME280;64701;43.536;1.478;2023-12-20T04:38:39;100298.06;;;8.19;100.00
76011;BME280;64701;43.536;1.478;2023-12-20T04:41:04;100298.06;;;8.19;100.00
76011;BME280;64701;43.536;1.478;2023-12-20T04:43:30;100298.69;;;8.13;100.00
76011;BME280;64701;43.536;1.478;2023-12-20T04:45:55;100289.13;;;8.12;100.00
76011;BME280;64701;43.536;1.478;2023-12-20T04:48:20;100290.94;;;8.11;100.00
76011;BME280;64701;43.536;1.478;2023-12-20T04:50:45;100283.69;;;8.13;100.00
76011;BME280;64701;43.536;1.478;2023-12-20T04:53:11;100276.47;;;8.15;100.00
76011;BME280;64701;43.536;1.478;2023-12-20T04:55:36;100278.09;;;8.16;100.00
76011;BME280;64701;43.536;1.478;2023-12-20T04:58:01;100281.22;;;8.12;100.00
76011;BME280;64701;43.536;1.478;2023-12-20T05:00:26;100277.59;;;8.13;100.00
76011;BME280;64701;43.536;1.478;2023-12-20T05:02:52;100273.97;;;8.14;100.00
76011;BME280;64701;43.536;1.478;2023-12-20T05:05:17;100279.25;;;8.14;100.00
76011;BME280;64701;43.536;1.478;2023-12-20T05:07:43;100277.28;;;8.16;100.00
76011;BME280;64701;43.536;1.478;2023-12-20T05:10:08;100272.81;;;8.16;100.00
76011;BME280;64701;43.536;1.478;2023-12-20T05:12:34;100273.34;;;8.20;100.00
76011;BME280;64701;43.536;1.478;2023-12-20T05:14:59;100268.38;;;8.17;100.00
76011;BME280;64701;43.536;1.478;2023-12-20T05:17:25;100280.28;;;8.21;100.00
76011;BME280;64701;43.536;1.478;2023-12-20T05:19:50;100278.28;;;8.23;100.00
76011;BME280;64701;43.536;1.478;2023-12-20T05:22:15;100285.75;;;8.28;100.00
76011;BME280;64701;43.536;1.478;2023-12-20T05:24:40;100281.31;;;8.28;100.00
76011;BME280;64701;43.536;1.478;2023-12-20T05:27:06;100287.38;;;8.29;100.00
76011;BME280;64701;43.536;1.478;2023-12-20T05:29:32;100284.63;;;8.30;100.00
76011;BME280;64701;43.536;1.478;2023-12-20T05:31:57;100285.56;;;8.29;100.00
76011;BME280;64701;43.536;1.478;2023-12-20T05:34:23;100295.72;;;8.34;100.00
76011;BME280;64701;43.536;1.478;2023-12-20T05:36:48;100291.09;;;8.36;100.00
76011;BME280;64701;43.536;1.478;2023-12-20T05:39:13;100295.88;;;8.40;100.00
76011;BME280;64701;43.536;1.478;2023-12-20T05:41:38;100294.25;;;8.39;100.00
76011;BME280;64701;43.536;1.478;2023-12-20T05:44:04;100299.19;;;8.42;100.00
76011;BME280;64701;43.536;1.478;2023-12-20T05:46:29;100303.34;;;8.45;100.00
76011;BME280;64701;43.536;1.478;2023-12-20T05:48:54;100302.19;;;8.47;100.00
76011;BME280;64701;43.536;1.478;2023-12-20T05:51:19;100311.59;;;8.50;100.00
76011;BME280;64701;43.536;1.478;2023-12-20T05:53:45;100317.72;;;8.50;100.00
76011;BME280;64701;43.536;1.478;2023-12-20T05:56:10;100322.00;;;8.51;100.00
76011;BME280;64701;43.536;1.478;2023-12-20T05:58:35;100325.78;;;8.49;100.00
76011;BME280;64701;43.536;1.478;2023-12-20T06:01:03;100331.56;;;8.52;100.00
76011;BME280;64701;43.536;1.478;2023-12-20T06:03:29;100331.25;;;8.55;100.00
76011;BME280;64701;43.536;1.478;2023-12-20T06:05:54;100337.88;;;8.59;100.00
76011;BME280;64701;43.536;1.478;2023-12-20T06:08:19;100342.50;;;8.57;100.00
76011;BME280;64701;43.536;1.478;2023-12-20T06:10:44;100349.78;;;8.64;100.00
76011;BME280;64701;43.536;1.478;2023-12-20T06:13:10;100349.16;;;8.70;100.00
76011;BME280;64701;43.536;1.478;2023-12-20T06:15:35;100357.06;;;8.70;100.00
76011;BME280;64701;43.536;1.478;2023-12-20T06:18:00;100364.97;;;8.70;100.00
76011;BME280;64701;43.536;1.478;2023-12-20T06:20:26;100361.72;;;8.76;100.00
76011;BME280;64701;43.536;1.478;2023-12-20T06:22:51;100363.34;;;8.77;100.00
76011;BME280;64701;43.536;1.478;2023-12-20T06:25:16;100368.97;;;8.82;100.00
76011;BME280;64701;43.536;1.478;2023-12-20T06:27:42;100371.31;;;8.85;100.00
76011;BME280;64701;43.536;1.478;2023-12-20T06:30:07;100369.97;;;8.89;100.00
76011;BME280;64701;43.536;1.478;2023-12-20T06:32:34;100374.63;;;8.87;100.00
76011;BME280;64701;43.536;1.478;2023-12-20T06:34:59;100377.25;;;8.87;100.00
76011;BME280;64701;43.536;1.478;2023-12-20T06:37:24;100383.88;;;8.91;100.00
76011;BME280;64701;43.536;1.478;2023-12-20T06:39:50;100383.53;;;8.86;100.00
76011;BME280;64701;43.536;1.478;2023-12-20T06:42:15;100393.75;;;8.89;100.00
76011;BME280;64701;43.536;1.478;2023-12-20T06:44:40;100405.50;;;8.94;100.00
76011;BME280;64701;43.536;1.478;2023-12-20T06:47:05;100391.31;;;8.95;100.00
76011;BME280;64701;43.536;1.478;2023-12-20T06:49:31;100405.69;;;9.01;100.00
76011;BME280;64701;43.536;1.478;2023-12-20T06:51:56;100405.69;;;9.01;100.00
76011;BME280;64701;43.536;1.478;2023-12-20T06:54:21;100412.13;;;8.98;100.00
76011;BME280;64701;43.536;1.478;2023-12-20T06:56:46;100412.13;;;9.07;100.00
76011;BME280;64701;43.536;1.478;2023-12-20T06:59:12;100424.22;;;9.09;100.00
76011;BME280;64701;43.536;1.478;2023-12-20T07:01:37;100419.59;;;9.11;100.00
76011;BME280;64701;43.536;1.478;2023-12-20T07:04:03;100429.16;;;9.12;100.00
76011;BME280;64701;43.536;1.478;2023-12-20T07:06:28;100440.09;;;9.17;100.00
76011;BME280;64701;43.536;1.478;2023-12-20T07:08:53;100434.00;;;9.17;100.00
76011;BME280;64701;43.536;1.478;2023-12-20T07:11:18;100439.28;;;9.25;100.00
76011;BME280;64701;43.536;1.478;2023-12-20T07:13:44;100454.31;;;9.24;100.00
76011;BME280;64701;43.536;1.478;2023-12-20T07:16:09;100453.16;;;9.27;100.00
76011;BME280;64701;43.536;1.478;2023-12-20T07:18:34;100457.31;;;9.29;100.00
76011;BME280;64701;43.536;1.478;2023-12-20T07:20:59;100458.31;;;9.28;100.00
76011;BME280;64701;43.536;1.478;2023-12-20T07:23:25;100471.81;;;9.25;100.00
76011;BME280;64701;43.536;1.478;2023-12-20T07:25:51;100480.91;;;9.23;100.00
76011;BME280;64701;43.536;1.478;2023-12-20T07:28:17;100474.94;;;9.21;100.00
76011;BME280;64701;43.536;1.478;2023-12-20T07:30:42;100489.16;;;9.20;100.00
76011;BME280;64701;43.536;1.478;2023-12-20T07:33:07;100491.94;;;9.18;100.00
76011;BME280;64701;43.536;1.478;2023-12-20T07:35:34;100494.44;;;9.20;100.00
76011;BME280;64701;43.536;1.478;2023-12-20T07:37:59;100505.00;;;9.20;100.00
76011;BME280;64701;43.536;1.478;2023-12-20T07:40:24;100506.97;;;9.18;100.00
76011;BME280;64701;43.536;1.478;2023-12-20T07:42:50;100507.78;;;9.18;100.00
76011;BME280;64701;43.536;1.478;2023-12-20T07:45:15;100517.03;;;9.14;100.00
76011;BME280;64701;43.536;1.478;2023-12-20T07:47:40;100526.78;;;9.14;100.00
76011;BME280;64701;43.536;1.478;2023-12-20T07:50:06;100529.41;;;9.14;100.00
76011;BME280;64701;43.536;1.478;2023-12-20T07:52:31;100536.84;;;9.10;100.00
76011;BME280;64701;43.536;1.478;2023-12-20T07:54:57;100537.13;;;9.07;100.00
76011;BME280;64701;43.536;1.478;2023-12-20T07:57:23;100544.41;;;9.05;100.00
76011;BME280;64701;43.536;1.478;2023-12-20T07:59:48;100559.63;;;9.11;100.00
76011;BME280;64701;43.536;1.478;2023-12-20T08:02:14;100566.88;;;9.09;100.00
76011;BME280;64701;43.536;1.478;2023-12-20T08:04:40;100573.63;;;9.04;100.00
76011;BME280;64701;43.536;1.478;2023-12-20T08:07:06;100577.38;;;9.01;100.00
76011;BME280;64701;43.536;1.478;2023-12-20T08:09:31;100583.41;;;9.11;100.00
76011;BME280;64701;43.536;1.478;2023-12-20T08:11:57;100590.81;;;9.08;100.00
76011;BME280;64701;43.536;1.478;2023-12-20T08:14:24;100599.25;;;9.11;100.00
76011;BME280;64701;43.536;1.478;2023-12-20T08:16:49;100601.69;;;9.05;100.00
76011;BME280;64701;43.536;1.478;2023-12-20T08:19:15;100606.44;;;9.01;100.00
76011;BME280;64701;43.536;1.478;2023-12-20T08:21:40;100605.09;;;8.97;100.00
76011;BME280;64701;43.536;1.478;2023-12-20T08:24:05;100608.50;;;8.89;100.00
76011;BME280;64701;43.536;1.478;2023-12-20T08:26:31;100617.88;;;8.84;100.00
76011;BME280;64701;43.536;1.478;2023-12-20T08:28:56;100629.59;;;8.81;100.00
76011;BME280;64701;43.536;1.478;2023-12-20T08:31:21;100625.81;;;8.84;100.00
76011;BME280;64701;43.536;1.478;2023-12-20T08:33:47;100637.50;;;8.81;100.00
76011;BME280;64701;43.536;1.478;2023-12-20T08:36:13;100646.09;;;8.83;100.00
76011;BME280;64701;43.536;1.478;2023-12-20T08:38:38;100655.81;;;8.83;100.00
76011;BME280;64701;43.536;1.478;2023-12-20T08:41:03;100652.69;;;8.79;100.00
76011;BME280;64701;43.536;1.478;2023-12-20T08:43:39;100666.38;;;8.83;100.00
76011;BME280;64701;43.536;1.478;2023-12-20T08:46:07;100668.59;;;8.87;100.00
76011;BME280;64701;43.536;1.478;2023-12-20T08:48:34;100676.06;;;8.92;100.00
76011;BME280;64701;43.536;1.478;2023-12-20T08:51:00;100683.28;;;8.90;100.00
76011;BME280;64701;43.536;1.478;2023-12-20T08:53:25;100688.19;;;8.85;100.00
76011;BME280;64701;43.536;1.478;2023-12-20T08:55:50;100685.19;;;8.80;100.00
76011;BME280;64701;43.536;1.478;2023-12-20T08:58:15;100697.56;;;8.79;100.00
76011;BME280;64701;43.536;1.478;2023-12-20T09:00:41;100701.56;;;8.83;100.00
76011;BME280;64701;43.536;1.478;2023-12-20T09:03:06;100698.06;;;8.83;100.00
76011;BME280;64701;43.536;1.478;2023-12-20T09:05:32;100709.34;;;8.85;100.00
76011;BME280;64701;43.536;1.478;2023-12-20T09:07:57;100706.00;;;8.83;100.00
76011;BME280;64701;43.536;1.478;2023-12-20T09:10:22;100725.88;;;8.87;100.00
76011;BME280;64701;43.536;1.478;2023-12-20T09:12:48;100730.84;;;8.90;100.00
76011;BME280;64701;43.536;1.478;2023-12-20T09:15:13;100732.13;;;8.86;100.00
76011;BME280;64701;43.536;1.478;2023-12-20T09:17:39;100743.94;;;8.82;100.00
76011;BME280;64701;43.536;1.478;2023-12-20T09:20:05;100749.47;;;8.88;100.00
76011;BME280;64701;43.536;1.478;2023-12-20T09:22:32;100749.47;;;8.88;100.00
76011;BME280;64701;43.536;1.478;2023-12-20T09:24:57;100753.78;;;8.89;100.00
76011;BME280;64701;43.536;1.478;2023-12-20T09:27:22;100760.25;;;8.95;100.00
76011;BME280;64701;43.536;1.478;2023-12-20T09:29:48;100760.81;;;8.98;100.00
76011;BME280;64701;43.536;1.478;2023-12-20T09:32:13;100765.13;;;8.99;100.00
76011;BME280;64701;43.536;1.478;2023-12-20T09:34:38;100773.69;;;9.01;100.00
76011;BME280;64701;43.536;1.478;2023-12-20T09:37:04;100769.56;;;8.99;100.00
76011;BME280;64701;43.536;1.478;2023-12-20T09:39:30;100770.41;;;8.99;100.00
76011;BME280;64701;43.536;1.478;2023-12-20T09:42:03;100773.94;;;9.08;100.00
76011;BME280;64701;43.536;1.478;2023-12-20T09:44:28;100769.34;;;9.10;100.00
76011;BME280;64701;43.536;1.478;2023-12-20T09:46:54;100774.44;;;9.12;100.00
76011;BME280;64701;43.536;1.478;2023-12-20T09:49:20;100774.31;;;9.13;100.00
76011;BME280;64701;43.536;1.478;2023-12-20T09:51:46;100774.44;;;9.12;100.00
76011;BME280;64701;43.536;1.478;2023-12-20T09:54:12;100774.16;;;9.15;100.00
76011;BME280;64701;43.536;1.478;2023-12-20T09:56:38;100764.06;;;9.10;100.00
76011;BME280;64701;43.536;1.478;2023-12-20T09:59:04;100764.41;;;9.15;100.00
76011;BME280;64701;43.536;1.478;2023-12-20T10:01:29;100774.38;;;9.21;100.00
76011;BME280;64701;43.536;1.478;2023-12-20T10:03:55;100775.06;;;9.23;100.00
76011;BME280;64701;43.536;1.478;2023-12-20T10:06:21;100781.69;;;9.27;100.00
76011;BME280;64701;43.536;1.478;2023-12-20T10:08:47;100789.84;;;9.34;100.00
76011;BME280;64701;43.536;1.478;2023-12-20T10:11:12;100781.59;;;9.37;100.00
76011;BME280;64701;43.536;1.478;2023-12-20T10:13:39;100783.50;;;9.45;100.00
76011;BME280;64701;43.536;1.478;2023-12-20T10:16:05;100791.41;;;9.45;100.00
76011;BME280;64701;43.536;1.478;2023-12-20T10:18:31;100783.63;;;9.43;100.00
76011;BME280;64701;43.536;1.478;2023-12-20T10:20:56;100786.81;;;9.47;100.00
76011;BME280;64701;43.536;1.478;2023-12-20T10:23:21;100786.81;;;9.47;100.00
76011;BME280;64701;43.536;1.478;2023-12-20T10:25:57;100784.84;;;9.49;100.00
76011;BME280;64701;43.536;1.478;2023-12-20T10:28:23;100786.88;;;9.37;100.00
76011;BME280;64701;43.536;1.478;2023-12-20T10:30:52;100790.75;;;9.42;100.00
76011;BME280;64701;43.536;1.478;2023-12-20T10:33:24;100782.88;;;9.51;100.00
76011;BME280;64701;43.536;1.478;2023-12-20T10:35:50;100774.47;;;9.55;100.00
76011;BME280;64701;43.536;1.478;2023-12-20T10:38:15;100776.34;;;9.63;100.00
76011;BME280;64701;43.536;1.478;2023-12-20T10:40:40;100770.97;;;9.72;100.00
76011;BME280;64701;43.536;1.478;2023-12-20T10:43:06;100768.72;;;9.86;100.00
76011;BME280;64701;43.536;1.478;2023-12-20T10:45:33;100765.41;;;9.83;100.00
76011;BME280;64701;43.536;1.478;2023-12-20T10:47:59;100758.00;;;9.87;100.00
76011;BME280;64701;43.536;1.478;2023-12-20T10:50:25;100758.91;;;10.04;100.00
76011;BME280;64701;43.536;1.478;2023-12-20T10:52:51;100762.44;;;10.12;100.00
76011;BME280;64701;43.536;1.478;2023-12-20T10:55:20;100745.00;;;10.28;100.00
76011;BME280;64701;43.536;1.478;2023-12-20T10:57:46;100753.75;;;10.28;100.00
76011;BME280;64701;43.536;1.478;2023-12-20T11:00:16;100755.28;;;10.31;100.00
76011;BME280;64701;43.536;1.478;2023-12-20T11:02:42;100754.91;;;10.26;100.00
76011;BME280;64701;43.536;1.478;2023-12-20T11:07:43;100748.13;;;10.23;100.00
76011;BME280;64701;43.536;1.478;2023-12-20T11:10:16;100745.34;;;10.33;100.00
76011;BME280;64701;43.536;1.478;2023-12-20T11:12:46;100747.69;;;10.36;100.00
76011;BME280;64701;43.536;1.478;2023-12-20T11:15:13;100738.09;;;10.43;100.00
76011;BME280;64701;43.536;1.478;2023-12-20T11:17:40;100735.66;;;10.57;100.00
76011;BME280;64701;43.536;1.478;2023-12-20T11:20:06;100738.81;;;10.69;100.00
76011;BME280;64701;43.536;1.478;2023-12-20T11:22:33;100733.22;;;10.72;100.00
76011;BME280;64701;43.536;1.478;2023-12-20T11:27:31;100741.13;;;10.64;99.11
76011;BME280;64701;43.536;1.478;2023-12-20T11:29:57;100728.81;;;10.39;97.59
76011;BME280;64701;43.536;1.478;2023-12-20T11:34:55;100727.03;;;10.47;96.49
76011;BME280;64701;43.536;1.478;2023-12-20T11:37:20;100730.25;;;10.83;98.21
76011;BME280;64701;43.536;1.478;2023-12-20T11:39:56;100728.56;;;10.74;94.43
76011;BME280;64701;43.536;1.478;2023-12-20T11:42:25;100714.69;;;11.13;93.18
76011;BME280;64701;43.536;1.478;2023-12-20T11:44:50;100714.66;;;11.61;91.37
76011;BME280;64701;43.536;1.478;2023-12-20T11:47:15;100699.22;;;11.65;88.47
76011;BME280;64701;43.536;1.478;2023-12-20T11:49:44;100701.31;;;11.94;86.80
76011;BME280;64701;43.536;1.478;2023-12-20T11:52:11;100699.63;;;12.01;84.11
76011;BME280;64701;43.536;1.478;2023-12-20T11:54:36;100696.31;;;11.99;83.63
76011;BME280;64701;43.536;1.478;2023-12-20T11:57:02;100695.22;;;11.85;84.66
76011;BME280;64701;43.536;1.478;2023-12-20T11:59:27;100694.03;;;11.88;84.20
76011;BME280;64701;43.536;1.478;2023-12-20T12:01:52;100688.31;;;12.07;85.29
76011;BME280;64701;43.536;1.478;2023-12-20T12:04:17;100683.19;;;12.05;83.81
76011;BME280;64701;43.536;1.478;2023-12-20T12:06:43;100694.75;;;11.65;84.15
76011;BME280;64701;43.536;1.478;2023-12-20T12:09:09;100702.03;;;11.63;85.61
76011;BME280;64701;43.536;1.478;2023-12-20T12:11:35;100702.34;;;11.68;84.30
76011;BME280;64701;43.536;1.478;2023-12-20T12:14:00;100700.78;;;12.37;78.73
76011;BME280;64701;43.536;1.478;2023-12-20T12:16:26;100704.38;;;12.98;75.50
76011;BME280;64701;43.536;1.478;2023-12-20T12:18:55;100702.22;;;13.54;73.31
76011;BME280;64701;43.536;1.478;2023-12-20T12:21:20;100707.28;;;14.07;69.34
76011;BME280;64701;43.536;1.478;2023-12-20T12:23:45;100700.66;;;14.68;64.97
76011;BME280;64701;43.536;1.478;2023-12-20T12:26:11;100698.34;;;15.01;64.68
76011;BME280;64701;43.536;1.478;2023-12-20T12:28:36;100700.66;;;15.11;61.13
76011;BME280;64701;43.536;1.478;2023-12-20T12:31:02;100708.53;;;14.98;59.58
76011;BME280;64701;43.536;1.478;2023-12-20T12:33:27;100712.28;;;15.25;57.94
76011;BME280;64701;43.536;1.478;2023-12-20T12:35:53;100722.53;;;15.00;56.59
76011;BME280;64701;43.536;1.478;2023-12-20T12:38:21;100716.94;;;15.65;56.48
76011;BME280;64701;43.536;1.478;2023-12-20T12:40:47;100712.94;;;16.23;54.13
76011;BME280;64701;43.536;1.478;2023-12-20T12:43:12;100711.56;;;16.00;52.28
76011;BME280;64701;43.536;1.478;2023-12-20T12:45:37;100716.56;;;15.75;56.57
76011;BME280;64701;43.536;1.478;2023-12-20T12:48:03;100711.78;;;15.15;55.79
76011;BME280;64701;43.536;1.478;2023-12-20T12:50:28;100712.31;;;14.82;57.77